Latest Weather Observations for Browse Island

IDW60801

Issued at 8:35 pm WST Friday 18 April 2014 (issued every 30 minutes, with the page automatically refreshed every 10 minutes)

About weather observations | Map of weather stations | Latest weather observations for WA | Other Formats
Station Details ID: 200784 Name: BROWSE ISLAND Lat: -14.11 Lon: 123.55 Height: 3.7 m
Data from the previous 72 hours. | See also: Recent months for locations in Western Australia
Date/Time
WST
Temp
°C
App
Temp
°C
Dew
Point
Rel
Hum
%
Delta-T
°C
Wind Press
QNH
hPa
Press
MSL
hPa
Rain
since 9 am
mm
Dir
 
Spd
km/h
Gust
km/h
Spd
kts
Gust
kts
18/08:30pm 30.0 - - - - ENE 11 13 6 7 1012.0 - -
18/08:00pm 30.1 - - - - ENE 9 11 5 6 1012.0 1012.0 -
18/07:30pm 30.0 - - - - ENE 9 - 5 - 1011.0 - -
18/07:00pm 29.9 - - - - ENE 13 - 7 - 1011.0 1011.0 -
18/06:30pm 30.0 - - - - ENE 17 - 9 - 1010.0 - -
18/06:00pm 30.0 - - - - E 17 - 9 - 1010.0 1010.3 -
18/05:30pm 30.0 - - - - E 17 - 9 - 1010.0 - -
18/05:00pm 30.6 - - - - E 17 - 9 - 1009.0 1009.8 -
18/04:30pm 31.0 - - - - E 20 - 11 - 1009.0 - -
18/04:00pm 31.1 - - - - E 20 - 11 - 1009.0 1009.2 -
18/03:30pm 32.0 - - - - E 19 - 10 - 1009.0 - -
18/03:00pm 32.0 - - - - E 20 - 11 - 1009.0 1009.2 -
18/02:30pm 32.0 - - - - E 22 - 12 - 1009.0 - -
18/02:00pm 31.8 - - - - E 22 - 12 - 1009.0 1009.4 -
18/01:30pm 32.0 - - - - ESE 20 - 11 - 1009.0 - -
18/01:00pm 32.1 - - - - ESE 19 - 10 - 1009.0 1009.8 -
18/12:30pm 32.0 - - - - SE 20 - 11 - 1010.0 - -
18/12:00pm 31.4 - - - - SE 22 30 12 16 1010.0 1010.3 -
18/11:30am 31.0 - - - - SE 20 - 11 - 1010.0 - -
18/11:00am 31.8 - - - - SE 20 - 11 - 1011.0 1011.1 -
18/10:30am 31.0 - - - - SE 22 - 12 - 1011.0 - -
18/10:00am 31.9 - - - - SE 19 - 10 - 1011.0 1011.6 -
18/09:30am 31.0 - - - - SE 20 - 11 - 1012.0 - -
18/09:00am 30.5 - - - - SE 19 - 10 - 1012.0 1012.0 -
18/08:30am 30.0 - - - - SE 17 - 9 - 1011.0 - -
18/08:00am 29.9 - - - - SSE 15 - 8 - 1011.0 1011.6 -
18/07:30am 30.0 - - - - SSE 15 - 8 - 1011.0 - -
18/07:00am 29.5 - - - - SSE 15 - 8 - 1011.0 1011.3 -
18/06:30am 29.0 - - - - SSE 15 - 8 - 1011.0 - -
18/06:00am 29.1 - - - - SSE 15 19 8 10 1010.0 1010.8 -
18/05:30am 29.0 - - - - SSE 13 - 7 - 1010.0 - -
18/05:00am 29.2 - - - - SSE 11 - 6 - 1010.0 1010.5 -
18/04:30am 29.0 - - - - SE 13 - 7 - 1010.0 - -
18/04:00am 29.3 - - - - ESE 15 20 8 11 1010.0 1010.3 -
18/03:30am 29.0 - - - - ESE 15 - 8 - 1010.0 - -
18/03:00am 29.5 - - - - ESE 11 - 6 - 1010.0 1010.6 -
18/02:30am 29.0 - - - - E 13 - 7 - 1010.0 - -
18/02:00am 29.5 - - - - ESE 11 - 6 - 1011.0 1010.9 -
18/01:30am 30.0 - - - - ESE 11 - 6 - 1011.0 - -
18/01:00am 29.4 - - - - ESE 11 - 6 - 1011.0 1011.1 -
18/12:30am 30.0 - - - - E 13 - 7 - 1011.0 - -
18/12:00am 29.5 - - - - E 11 15 6 8 1011.0 1011.6 -
 
Date/Time
WST
Temp
°C
App
Temp
°C
Dew
Point
Rel
Hum
%
Delta-T
°C
Wind Press
QNH
hPa
Press
MSL
hPa
Rain
since 9 am
mm
Dir
 
Spd
km/h
Gust
km/h
Spd
kts
Gust
kts
17/11:30pm 30.0 - - - - ENE 13 - 7 - 1012.0 - -
17/11:00pm 30.0 - - - - ENE 13 - 7 - 1012.0 1012.0 -
17/10:30pm 30.0 - - - - NE 11 - 6 - 1012.0 - -
17/10:00pm 29.9 - - - - NE 13 - 7 - 1012.0 1012.0 -
17/09:30pm 30.0 - - - - NE 13 - 7 - 1012.0 - -
17/09:00pm 30.1 - - - - ENE 15 - 8 - 1012.0 1012.2 -
17/08:30pm 30.0 - - - - ENE 13 - 7 - 1012.0 - -
17/08:00pm 29.8 - - - - ENE 15 - 8 - 1012.0 1012.0 -
17/07:30pm 30.0 - - - - E 13 - 7 - 1011.0 - -
17/07:00pm 29.8 - - - - E 17 - 9 - 1011.0 1011.5 -
17/06:30pm 30.0 - - - - E 13 - 7 - 1011.0 - -
17/06:00pm 30.0 - - - - ENE 15 - 8 - 1011.0 1011.0 -
17/05:30pm 30.0 - - - - E 17 - 9 - 1010.0 - -
17/05:00pm 30.6 - - - - E 17 - 9 - 1010.0 1010.4 -
17/04:30pm 31.0 - - - - E 17 - 9 - 1010.0 - -
17/04:00pm 30.9 - - - - E 17 - 9 - 1009.0 1009.4 -
17/03:30pm 31.0 - - - - ESE 17 - 9 - 1009.0 - -
17/03:00pm 31.6 - - - - ESE 19 - 10 - 1009.0 1009.0 -
17/02:30pm 32.0 - - - - ESE 19 - 10 - 1009.0 - -
17/02:00pm 32.0 - - - - ESE 19 - 10 - 1009.0 1009.3 -
17/01:30pm 31.0 - - - - ESE 22 - 12 - 1009.0 - -
17/01:00pm 31.9 - - - - ESE 22 - 12 - 1010.0 1010.0 -
17/12:30pm 31.0 - - - - ESE 24 - 13 - 1010.0 - -
17/12:00pm 31.2 - - - - ESE 28 - 15 - 1010.0 1010.3 -
17/11:30am 31.0 - - - - SE 26 - 14 - 1010.0 - -
17/11:00am 31.1 - - - - SE 24 - 13 - 1011.0 1010.9 -
17/10:30am 32.0 - - - - SE 24 - 13 - 1011.0 - -
17/10:00am 31.3 - - - - SE 24 - 13 - 1011.0 1011.4 -
17/09:30am 31.0 - - - - SE 24 - 13 - 1011.0 - -
17/09:00am 31.0 - - - - SE 22 - 12 - 1011.0 1011.8 -
17/08:30am 31.0 - - - - ESE 24 - 13 - 1011.0 - -
17/08:00am 30.8 - - - - ESE 24 - 13 - 1011.0 1011.6 -
17/07:30am 31.0 - - - - ESE 24 - 13 - 1011.0 - -
17/07:00am 30.4 - - - - E 22 - 12 - 1011.0 1011.1 -
17/06:30am 30.0 - - - - E 20 - 11 - 1010.0 - -
17/06:00am 29.8 - - - - E 20 - 11 - 1010.0 1010.4 -
17/05:30am 30.0 - - - - E 22 - 12 - 1010.0 - -
17/05:00am 29.9 - - - - E 24 - 13 - 1010.0 1009.9 -
17/04:30am 30.0 - - - - E 22 - 12 - 1009.0 - -
17/04:00am 29.9 - - - - E 24 - 13 - 1010.0 1010.0 -
17/03:30am 30.0 - - - - E 24 - 13 - 1010.0 - -
17/03:00am 30.0 - - - - E 24 - 13 - 1010.0 1009.9 -
17/02:30am 30.0 - - - - ENE 22 - 12 - 1010.0 - -
17/02:00am 29.9 - - - - ENE 22 - 12 - 1010.0 1010.1 -
17/01:30am 30.0 - - - - ENE 20 - 11 - 1010.0 - -
17/01:00am 30.0 - - - - ENE 20 - 11 - 1010.0 1010.6 -
17/12:30am 30.0 - - - - ENE 19 - 10 - 1010.0 - -
17/12:00am 30.1 - - - - ENE 19 - 10 - 1011.0 1010.9 -
 
Date/Time
WST
Temp
°C
App
Temp
°C
Dew
Point
Rel
Hum
%
Delta-T
°C
Wind Press
QNH
hPa
Press
MSL
hPa
Rain
since 9 am
mm
Dir
 
Spd
km/h
Gust
km/h
Spd
kts
Gust
kts
16/11:30pm 30.0 - - - - ENE 15 - 8 - 1011.0 - -
16/11:00pm 30.1 - - - - ENE 19 - 10 - 1011.0 1011.1 -
16/10:30pm 30.0 - - - - ENE 19 - 10 - 1011.0 - -
16/10:00pm 30.2 - - - - NE 19 - 10 - 1011.0 1011.0 -
16/09:30pm 30.0 - - - - NE 20 - 11 - 1011.0 - -
16/09:00pm 30.4 - - - - ENE 22 - 12 - 1011.0 1011.0 -
16/08:30pm 30.0 - - - - ENE 24 - 13 - 1011.0 - -
16/08:00pm 30.3 - - - - ENE 22 - 12 - 1010.0 1010.5 -
16/07:30pm 30.0 - - - - E 24 - 13 - 1010.0 - -
16/07:00pm 30.4 - - - - ENE 24 - 13 - 1009.0 1009.6 -
16/06:30pm 30.0 - - - - E 26 - 14 - 1009.0 - -
16/06:00pm 30.1 - - - - E 28 - 15 - 1009.0 1008.9 -
16/05:30pm 30.0 - - - - E 26 - 14 - 1008.0 - -
16/05:00pm 30.6 - - - - E 26 - 14 - 1008.0 1008.5 -
16/04:30pm 31.0 - - - - ESE 28 - 15 - 1008.0 - -
16/04:00pm 30.9 - - - - E 28 - 15 - 1008.0 1008.0 -
16/03:30pm 32.0 - - - - E 24 - 13 - 1008.0 - -
16/03:00pm 31.2 - - - - E 22 - 12 - 1008.0 1008.1 -
16/02:30pm 32.0 - - - - E 24 - 13 - 1008.0 - -
16/02:00pm 31.9 - - - - E 22 - 12 - 1008.0 1008.4 -
16/01:30pm 32.0 - - - - E 22 - 12 - 1008.0 - -
16/01:00pm 31.1 - - - - E 22 - 12 - 1009.0 1009.2 -
16/12:30pm 31.0 - - - - E 24 - 13 - 1009.0 - -
16/12:00pm 31.2 - - - - E 20 - 11 - 1010.0 1010.1 -
16/11:30am 31.0 - - - - E 17 - 9 - 1010.0 - -
16/11:00am 30.1 - - - - E 20 - 11 - 1011.0 1011.1 -
16/10:30am 30.0 - - - - ENE 17 - 9 - 1011.0 - -
16/10:00am 29.5 - - - - ENE 22 - 12 - 1011.0 1011.7 -
16/09:30am 30.0 - - - - E 22 - 12 - 1012.0 - -
16/09:00am 28.0 - - - - ENE 30 - 16 - 1012.0 1011.9 -
16/08:45am 28.0 - - - - E 30 - 16 - 1011.0 - -
16/08:30am 30.0 - - - - ESE 13 - 7 - 1011.0 - -
16/08:00am 29.7 - - - - SE 11 - 6 - 1011.0 1011.4 -
16/07:30am 30.0 - - - - ESE 9 - 5 - 1011.0 - -
16/07:00am 29.2 - - - - SE 9 - 5 - 1011.0 1011.0 -
16/06:30am 29.0 - - - - SE 9 - 5 - 1010.0 - -
16/06:00am 29.1 - - - - SE 11 - 6 - 1010.0 1010.5 -
16/05:30am 29.0 - - - - SE 7 - 4 - 1010.0 - -
16/05:00am 29.2 - - - - SE 9 - 5 - 1010.0 1010.1 -
16/04:30am 29.0 - - - - SSE 9 - 5 - 1009.0 - -
16/04:00am 29.2 - - - - SE 9 - 5 - 1010.0 1009.9 -
16/03:30am 30.0 - - - - SSE 9 - 5 - 1010.0 - -
16/03:00am 29.5 - - - - SSE 9 - 5 - 1010.0 1010.0 -
16/02:30am 30.0 - - - - SE 9 - 5 - 1010.0 - -
16/02:00am 29.6 - - - - ESE 9 - 5 - 1010.0 1010.4 -
16/01:30am 30.0 - - - - ESE 9 - 5 - 1010.0 - -
16/01:00am 29.8 - - - - ESE 6 - 3 - 1010.0 1010.7 -
16/12:30am 30.0 - - - - SE 7 - 4 - 1011.0 - -
16/12:00am 30.0 - - - - ESE 7 - 4 - 1011.0 1011.2 -
 
Date/Time
WST
Temp
°C
App
Temp
°C
Dew
Point
Rel
Hum
%
Delta-T
°C
Wind Press
QNH
hPa
Press
MSL
hPa
Rain
since 9 am
mm
Dir
 
Spd
km/h
Gust
km/h
Spd
kts
Gust
kts
15/11:30pm 30.0 - - - - ESE 7 - 4 - 1011.0 - -
15/11:00pm 30.0 - - - - E 4 - 2 - 1011.0 1011.5 -
15/10:30pm 30.0 - - - - CALM 0 - 0 - 1011.0 - -
15/10:00pm 30.1 - - - - ENE 7 - 4 - 1011.0 1011.6 -
15/09:30pm 30.0 - - - - NE 7 - 4 - 1011.0 - -
15/09:00pm 30.0 - - - - ENE 9 - 5 - 1011.0 1011.6 -

Other Formats:

Comma delimited format used in spreadsheet applications
http://www.bom.gov.au/fwo/IDW60801/IDW60801.94103.axf

JavaScript Object Notation format (JSON) in row-major order
http://www.bom.gov.au/fwo/IDW60801/IDW60801.94103.json